Terminal Aerodrome Forecast
Issued by NWS

Home | Current Version | Previous Version | Text Only | Print | Product List | Glossary On
Versions: 1 2 3 4 5 6 7 8 9 10 11 12 13 14 15 16 17 18 19 20
398
FTUS41 KCAR 061755
TAFPQI
TAF
KPQI 061755Z 0618/0718 22007KT P6SM SCT035
     FM061900 22008KT P6SM BKN035
     FM070000 18008KT P6SM BKN035
     FM070800 22009KT P6SM BKN045
     FM071300 28011G20KT 2SM -SHSN BKN025
     FM071530 30012G21KT P6SM SCT030=

USA.gov is the U.S. government's official web portal to all federal, state and local government web resources and services.